createdAt,value
2023-03-17T00:01:53.384Z,1.90
2023-03-17T00:03:28.907Z,1.69
2023-03-17T00:05:13.670Z,1.52
2023-03-17T00:06:38.711Z,1.47
2023-03-17T00:08:23.233Z,2.35
2023-03-17T00:09:56.573Z,3.95
2023-03-17T00:11:21.614Z,4.94
2023-03-17T00:12:50.793Z,4.95
2023-03-17T00:14:31.107Z,4.38
2023-03-17T00:15:51.553Z,3.81
2023-03-17T00:17:14.479Z,3.35
2023-03-17T00:18:37.555Z,2.93
2023-03-17T00:20:21.639Z,2.57
2023-03-17T00:21:46.504Z,2.26
2023-03-17T00:23:31.529Z,2.00
2023-03-17T00:25:10.937Z,1.76
2023-03-17T00:26:54.524Z,1.56
2023-03-17T00:28:27.232Z,1.40
2023-03-17T00:30:15.765Z,1.60
2023-03-17T00:31:39.835Z,2.91
2023-03-17T00:33:12.724Z,4.38
2023-03-17T00:34:47.718Z,5.08
2023-03-17T00:36:10.191Z,4.80
2023-03-17T00:37:42.171Z,4.18
2023-03-17T00:39:23.909Z,3.59
2023-03-17T00:40:48.487Z,3.06
2023-03-17T00:42:09.769Z,2.69
2023-03-17T00:43:35.782Z,2.37
2023-03-17T00:45:07.835Z,2.06
2023-03-17T00:46:40.060Z,1.83
2023-03-17T00:48:25.860Z,1.55
2023-03-17T00:49:48.888Z,1.38
2023-03-17T00:51:28.872Z,2.00
2023-03-17T00:53:01.512Z,3.45
2023-03-17T00:54:46.182Z,4.76
2023-03-17T00:56:30.034Z,5.00
2023-03-17T00:58:14.208Z,4.35
2023-03-17T00:59:54.709Z,3.69
2023-03-17T01:01:29.615Z,3.09
2023-03-17T01:03:13.491Z,2.59
2023-03-17T01:04:52.880Z,2.19
2023-03-17T01:06:34.527Z,1.85
2023-03-17T01:08:06.391Z,1.61
2023-03-17T01:09:29.774Z,1.42
2023-03-17T01:10:51.357Z,1.25
2023-03-17T01:12:13.549Z,1.33
2023-03-17T01:13:36.558Z,2.25
2023-03-17T01:14:57.465Z,3.48
2023-03-17T01:16:18.278Z,4.59
2023-03-17T01:17:51.297Z,4.84
2023-03-17T01:19:14.348Z,4.37
2023-03-17T01:20:42.492Z,3.79
2023-03-17T01:22:05.284Z,3.29
2023-03-17T01:23:26.597Z,2.89
2023-03-17T01:24:47.452Z,2.55
2023-03-17T01:26:15.414Z,2.26
2023-03-17T01:27:47.625Z,1.96
2023-03-17T01:29:22.143Z,1.75
2023-03-17T01:30:45.408Z,1.53
2023-03-17T01:32:08.161Z,1.38
2023-03-17T01:33:52.652Z,1.21
2023-03-17T01:35:23.082Z,1.48
2023-03-17T01:37:04.738Z,2.54
2023-03-17T01:38:37.238Z,4.31
2023-03-17T01:39:57.500Z,4.99
2023-03-17T01:41:29.890Z,4.80
2023-03-17T01:42:52.853Z,4.21
2023-03-17T01:44:25.006Z,3.67
2023-03-17T01:45:45.461Z,3.16
2023-03-17T01:47:13.697Z,2.79
2023-03-17T01:48:34.607Z,2.45
2023-03-17T01:50:09.223Z,2.16
2023-03-17T01:51:37.080Z,1.93
2023-03-17T01:53:05.453Z,1.69
2023-03-17T01:54:26.366Z,1.51
2023-03-17T01:56:05.991Z,1.36
2023-03-17T01:57:39.634Z,1.37
2023-03-17T01:59:13.906Z,2.52
2023-03-17T02:00:46.209Z,3.81
2023-03-17T02:02:11.442Z,4.89
2023-03-17T02:03:32.574Z,4.85
2023-03-17T02:04:55.206Z,4.36
2023-03-17T02:06:16.245Z,3.81
2023-03-17T02:07:37.921Z,3.30
2023-03-17T02:08:58.604Z,2.88
2023-03-17T02:10:19.887Z,2.53
2023-03-17T02:11:40.296Z,2.23
2023-03-17T02:13:24.258Z,1.94
2023-03-17T02:14:59.229Z,1.69
2023-03-17T02:16:27.383Z,1.47
2023-03-17T02:18:11.416Z,1.29
2023-03-17T02:19:45.748Z,1.86
2023-03-17T02:21:20.115Z,3.22
2023-03-17T02:23:03.818Z,4.61
2023-03-17T02:24:24.519Z,5.07
2023-03-17T02:25:57.318Z,4.62
2023-03-17T02:27:33.959Z,4.04
2023-03-17T02:29:05.785Z,3.45
2023-03-17T02:30:49.792Z,2.92
2023-03-17T02:32:33.922Z,2.49
2023-03-17T02:34:17.397Z,2.13
2023-03-17T02:36:09.768Z,1.83
2023-03-17T02:37:32.876Z,1.58
2023-03-17T02:39:16.332Z,1.39
2023-03-17T02:41:00.618Z,1.86
2023-03-17T02:42:44.973Z,3.35
2023-03-17T02:44:20.572Z,4.82
2023-03-17T02:46:05.005Z,4.96
2023-03-17T02:47:48.725Z,4.35
2023-03-17T02:49:28.458Z,3.68
2023-03-17T02:51:08.933Z,3.14
2023-03-17T02:52:29.614Z,2.66
2023-03-17T02:54:13.768Z,2.32
2023-03-17T02:56:02.918Z,2.00
2023-03-17T02:57:36.072Z,1.72
2023-03-17T02:59:11.412Z,1.51
2023-03-17T03:01:03.890Z,1.42
2023-03-17T03:02:51.380Z,2.53
2023-03-17T03:04:37.332Z,4.17
2023-03-17T03:06:21.374Z,5.14
2023-03-17T03:08:12.297Z,4.78
2023-03-17T03:09:47.857Z,4.04
2023-03-17T03:11:31.948Z,3.37
2023-03-17T03:13:15.916Z,2.83
2023-03-17T03:15:08.296Z,2.39
2023-03-17T03:17:00.513Z,2.01
2023-03-17T03:18:40.620Z,1.68
2023-03-17T03:20:25.637Z,1.47
2023-03-17T03:22:09.075Z,2.24
2023-03-17T03:23:42.669Z,3.78
2023-03-17T03:25:14.700Z,4.97
2023-03-17T03:26:47.313Z,5.10
2023-03-17T03:28:20.688Z,4.47
2023-03-17T03:30:03.953Z,3.81
2023-03-17T03:31:44.396Z,3.15
2023-03-17T03:33:27.630Z,2.67
2023-03-17T03:35:08.776Z,2.22
2023-03-17T03:37:01.177Z,1.86
2023-03-17T03:38:45.038Z,1.53
2023-03-17T03:40:29.685Z,1.70
2023-03-17T03:42:01.683Z,3.03
2023-03-17T03:43:36.269Z,4.40
2023-03-17T03:45:22.432Z,5.10
2023-03-17T03:47:15.727Z,4.61
2023-03-17T03:48:47.579Z,3.88
2023-03-17T03:50:15.065Z,3.28
2023-03-17T03:52:08.813Z,2.74
2023-03-17T03:53:52.859Z,2.24
2023-03-17T03:55:37.679Z,1.86
2023-03-17T03:57:21.698Z,1.55
2023-03-17T03:59:05.313Z,1.64
2023-03-17T04:00:58.747Z,2.90
2023-03-17T04:02:21.865Z,4.39
2023-03-17T04:03:55.387Z,5.04
2023-03-17T04:05:39.362Z,4.64
2023-03-17T04:07:23.337Z,3.89
2023-03-17T04:09:18.743Z,3.21
2023-03-17T04:11:02.489Z,2.60
2023-03-17T04:12:47.010Z,2.14
2023-03-17T04:14:31.210Z,1.77
2023-03-17T04:16:15.040Z,1.45
2023-03-17T04:17:55.269Z,1.98
2023-03-17T04:19:41.784Z,3.41
2023-03-17T04:21:13.196Z,4.83
2023-03-17T04:22:57.776Z,5.07
2023-03-17T04:24:41.826Z,4.42
2023-03-17T04:26:21.010Z,3.70
2023-03-17T04:28:14.692Z,3.05
2023-03-17T04:30:07.736Z,2.50
2023-03-17T04:31:40.445Z,2.10
2023-03-17T04:33:24.962Z,1.75
2023-03-17T04:34:59.610Z,1.46
2023-03-17T04:36:43.940Z,1.66
2023-03-17T04:38:16.159Z,2.96
2023-03-17T04:40:00.467Z,4.34
2023-03-17T04:41:35.028Z,5.05
2023-03-17T04:43:04.446Z,4.61
2023-03-17T04:44:37.167Z,3.92
2023-03-17T04:46:21.126Z,3.29
2023-03-17T04:48:04.660Z,2.71
2023-03-17T04:49:53.130Z,2.27
2023-03-17T04:51:37.346Z,1.87
2023-03-17T04:53:21.560Z,1.55
2023-03-17T04:55:01.570Z,1.37
2023-03-17T04:56:33.911Z,2.11
2023-03-17T04:58:29.983Z,3.61
2023-03-17T05:00:04.689Z,4.99
2023-03-17T05:01:39.153Z,4.86
2023-03-17T05:03:27.062Z,4.20
2023-03-17T05:05:12.118Z,3.44
2023-03-17T05:06:45.127Z,2.90
2023-03-17T05:08:29.455Z,2.42
2023-03-17T05:10:13.276Z,2.02
2023-03-17T05:11:45.769Z,1.68
2023-03-17T05:13:37.962Z,1.56
2023-03-17T05:15:17.716Z,2.66
2023-03-17T05:17:10.292Z,4.11
2023-03-17T05:18:55.492Z,5.16
2023-03-17T05:20:20.610Z,4.81
2023-03-17T05:22:01.767Z,4.15
2023-03-17T05:23:41.131Z,3.44
2023-03-17T05:25:26.046Z,2.89
2023-03-17T05:27:10.218Z,2.44
2023-03-17T05:28:51.536Z,2.10
2023-03-17T05:30:36.306Z,1.76
2023-03-17T05:32:08.751Z,1.83
2023-03-17T05:34:02.782Z,3.05
2023-03-17T05:35:55.307Z,4.71
2023-03-17T05:37:18.446Z,5.37
2023-03-17T05:39:02.916Z,4.91
2023-03-17T05:40:47.916Z,4.13
2023-03-17T05:42:21.009Z,3.52
2023-03-17T05:44:04.656Z,2.97
2023-03-17T05:45:49.255Z,2.53
2023-03-17T05:47:36.210Z,2.18
2023-03-17T05:49:22.801Z,1.90
2023-03-17T05:51:07.124Z,2.02
2023-03-17T05:53:00.913Z,3.32
2023-03-17T05:54:48.925Z,5.02
2023-03-17T05:56:32.806Z,5.41
2023-03-17T05:58:16.952Z,4.81
2023-03-17T05:59:37.605Z,4.18
2023-03-17T06:01:09.533Z,3.68
2023-03-17T06:02:53.971Z,3.18
2023-03-17T06:04:34.537Z,2.82
2023-03-17T06:06:20.665Z,2.45
2023-03-17T06:07:58.385Z,2.21
2023-03-17T06:09:42.818Z,2.00
2023-03-17T06:11:27.227Z,2.75
2023-03-17T06:13:11.050Z,4.29
2023-03-17T06:15:05.570Z,5.63
2023-03-17T06:16:38.141Z,5.52
2023-03-17T06:18:23.371Z,4.93
2023-03-17T06:20:02.940Z,4.27
2023-03-17T06:21:34.952Z,3.77
2023-03-17T06:23:18.140Z,3.39
2023-03-17T06:25:03.315Z,3.05
2023-03-17T06:26:48.805Z,2.77
2023-03-17T06:28:23.207Z,2.55
2023-03-17T06:30:08.430Z,2.41
2023-03-17T06:31:54.300Z,3.26
2023-03-17T06:33:26.920Z,4.66
2023-03-17T06:34:56.916Z,5.92
2023-03-17T06:36:40.728Z,5.93
2023-03-17T06:38:24.933Z,5.34
2023-03-17T06:40:09.390Z,4.74
2023-03-17T06:41:42.765Z,4.31
2023-03-17T06:43:26.128Z,3.91
2023-03-17T06:44:58.084Z,3.63
2023-03-17T06:46:32.792Z,3.37
2023-03-17T06:48:17.667Z,3.17
2023-03-17T06:49:57.853Z,2.99
2023-03-17T06:51:50.364Z,2.83
2023-03-17T06:53:13.206Z,2.69
2023-03-17T06:54:58.464Z,2.59
2023-03-17T06:56:29.850Z,2.51
2023-03-17T06:58:10.240Z,2.52
2023-03-17T07:00:03.259Z,3.61
2023-03-17T07:01:35.646Z,5.23
2023-03-17T07:03:20.345Z,6.25
2023-03-17T07:05:12.737Z,6.02
2023-03-17T07:06:59.256Z,5.42
2023-03-17T07:08:34.978Z,4.96
2023-03-17T07:10:20.167Z,4.58
2023-03-17T07:12:12.118Z,4.29
2023-03-17T07:13:55.562Z,4.06
2023-03-17T07:15:39.733Z,3.86
2023-03-17T07:17:19.337Z,3.72
2023-03-17T07:19:07.632Z,3.61
2023-03-17T07:20:47.694Z,3.53
2023-03-17T07:22:31.960Z,3.47
2023-03-17T07:24:15.582Z,3.44
2023-03-17T07:25:43.859Z,3.41
2023-03-17T07:27:22.872Z,3.40
2023-03-17T07:29:07.522Z,3.37
2023-03-17T07:30:46.986Z,3.37
2023-03-17T07:32:20.210Z,3.37
2023-03-17T07:33:59.721Z,3.39
2023-03-17T07:35:44.347Z,3.41
2023-03-17T07:37:28.777Z,3.43
2023-03-17T07:38:55.056Z,3.46
2023-03-17T07:40:28.457Z,3.49
2023-03-17T07:42:21.990Z,3.52
2023-03-17T07:43:56.059Z,3.55
2023-03-17T07:45:41.824Z,3.60
2023-03-17T07:47:16.674Z,3.65
2023-03-17T07:49:00.658Z,3.70
2023-03-17T07:50:34.901Z,3.75
2023-03-17T07:52:06.819Z,3.80
2023-03-17T07:53:59.118Z,3.86
2023-03-17T07:55:31.983Z,3.91
2023-03-17T07:57:15.833Z,3.96
2023-03-17T07:59:06.851Z,4.02
2023-03-17T08:00:50.749Z,4.07
2023-03-17T08:02:22.985Z,4.11
2023-03-17T08:04:02.458Z,4.16
2023-03-17T08:05:46.467Z,4.21
2023-03-17T08:07:30.503Z,4.29
2023-03-17T08:09:14.687Z,4.36
2023-03-17T08:10:49.241Z,4.41
2023-03-17T08:12:21.613Z,4.47
2023-03-17T08:14:05.130Z,4.52
2023-03-17T08:15:30.840Z,4.57
2023-03-17T08:17:22.938Z,4.64
2023-03-17T08:19:15.303Z,4.72
2023-03-17T08:20:56.012Z,4.80
2023-03-17T08:22:28.631Z,4.85
2023-03-17T08:24:12.678Z,4.92
2023-03-17T08:25:57.148Z,4.98
2023-03-17T08:27:30.126Z,5.04
2023-03-17T08:29:10.825Z,5.09
2023-03-17T08:30:52.237Z,5.15
2023-03-17T08:33:08.033Z,5.23
2023-03-17T08:34:52.717Z,5.27
2023-03-17T08:36:26.346Z,5.30
2023-03-17T08:38:10.339Z,5.31
2023-03-17T08:39:52.472Z,5.31
2023-03-17T08:41:28.429Z,5.33
2023-03-17T08:42:52.300Z,5.36
2023-03-17T08:44:26.452Z,5.39
2023-03-17T08:46:21.343Z,5.42
2023-03-17T08:48:15.368Z,5.46
2023-03-17T08:50:00.252Z,5.49
2023-03-17T08:51:34.390Z,5.52
2023-03-17T08:53:27.156Z,5.57
2023-03-17T08:55:00.732Z,5.65
2023-03-17T08:56:44.305Z,5.72
2023-03-17T08:58:19.690Z,5.79
2023-03-17T09:00:06.763Z,5.85
2023-03-17T09:01:47.973Z,5.94
2023-03-17T09:03:33.383Z,6.00
2023-03-17T09:05:18.750Z,6.06
2023-03-17T09:07:03.841Z,6.12
2023-03-17T09:08:52.416Z,6.17
2023-03-17T09:10:16.750Z,6.21
2023-03-17T09:11:38.513Z,6.25
2023-03-17T09:13:19.071Z,6.30
2023-03-17T09:14:53.546Z,6.36
2023-03-17T09:16:48.283Z,6.44
2023-03-17T09:18:12.076Z,6.50
2023-03-17T09:19:57.340Z,6.56
2023-03-17T09:21:42.500Z,6.62
2023-03-17T09:23:38.110Z,6.69
2023-03-17T09:25:21.250Z,6.78
2023-03-17T09:27:06.303Z,6.88
2023-03-17T09:28:39.633Z,6.99
2023-03-17T09:30:28.359Z,7.09
2023-03-17T09:32:04.144Z,7.22
2023-03-17T09:33:56.566Z,7.34
2023-03-17T09:35:40.385Z,7.46
2023-03-17T09:37:11.403Z,7.59
2023-03-17T09:38:58.666Z,7.69
2023-03-17T09:40:44.272Z,7.81
2023-03-17T09:42:38.246Z,7.92
2023-03-17T09:44:18.938Z,8.00
2023-03-17T09:45:55.248Z,8.06
2023-03-17T09:47:42.657Z,8.10
2023-03-17T09:49:27.951Z,8.12
2023-03-17T09:51:21.157Z,8.11
2023-03-17T09:53:10.314Z,8.09
2023-03-17T09:54:51.458Z,8.08
2023-03-17T09:56:45.197Z,8.08
2023-03-17T09:58:21.011Z,8.11
2023-03-17T10:00:06.183Z,8.12
2023-03-17T10:01:41.058Z,8.15
2023-03-17T10:03:26.155Z,8.19
2023-03-17T10:07:22.577Z,8.30
2023-03-17T10:09:04.631Z,8.35
2023-03-17T10:10:40.760Z,8.40
2023-03-17T10:12:26.082Z,8.46
2023-03-17T10:14:08.404Z,8.51
2023-03-17T10:15:50.041Z,8.55
2023-03-17T10:17:13.620Z,8.60
2023-03-17T10:18:50.490Z,8.61
2023-03-17T10:20:23.777Z,8.64
2023-03-17T10:21:59.072Z,8.69
2023-03-17T10:23:44.195Z,8.74
2023-03-17T10:25:17.775Z,8.77
2023-03-17T10:26:53.255Z,8.78
2023-03-17T10:28:46.736Z,8.79
2023-03-17T10:30:40.062Z,8.82
2023-03-17T10:32:21.789Z,8.85
2023-03-17T10:34:07.204Z,8.90
2023-03-17T10:35:52.960Z,8.96
2023-03-17T10:37:37.347Z,9.03
2023-03-17T10:39:10.854Z,9.11
2023-03-17T10:40:33.077Z,9.15
2023-03-17T10:41:55.472Z,9.19
2023-03-17T10:43:31.261Z,9.24
2023-03-17T10:45:10.495Z,9.29
2023-03-17T10:46:37.559Z,9.35
2023-03-17T10:48:22.485Z,9.42
2023-03-17T10:50:08.447Z,9.48
2023-03-17T10:51:53.607Z,9.54
2023-03-17T10:53:18.297Z,9.59
2023-03-17T10:54:59.391Z,9.61
2023-03-17T10:56:40.309Z,9.65
2023-03-17T10:58:02.018Z,9.66
2023-03-17T10:59:37.736Z,9.69
2023-03-17T11:01:11.184Z,9.73
2023-03-17T11:02:35.654Z,9.79
2023-03-17T11:04:17.497Z,9.84
2023-03-17T11:05:58.436Z,9.94
2023-03-17T11:07:20.307Z,10.02
2023-03-17T11:09:04.110Z,10.09
2023-03-17T11:10:37.629Z,10.17
2023-03-17T11:12:20.595Z,10.26
2023-03-17T11:13:43.032Z,10.36
2023-03-17T11:15:04.157Z,10.43
2023-03-17T11:16:27.061Z,10.50
2023-03-17T11:17:49.094Z,10.55
2023-03-17T11:19:23.518Z,10.59
2023-03-17T11:20:45.216Z,10.63
2023-03-17T11:22:06.819Z,10.66
2023-03-17T11:23:29.229Z,10.71
2023-03-17T11:24:51.246Z,10.75
2023-03-17T11:26:16.937Z,10.79
2023-03-17T11:27:38.885Z,10.84
2023-03-17T11:29:00.258Z,10.88
2023-03-17T11:30:22.504Z,10.93
2023-03-17T11:31:44.152Z,10.99
2023-03-17T11:33:06.089Z,11.04
2023-03-17T11:34:31.155Z,11.09
2023-03-17T11:35:53.321Z,11.14
2023-03-17T11:37:25.702Z,11.23
2023-03-17T11:38:48.535Z,11.32
2023-03-17T11:40:10.481Z,11.39
2023-03-17T11:41:32.797Z,11.47
2023-03-17T11:42:55.923Z,11.55
2023-03-17T11:44:18.407Z,11.62
2023-03-17T11:45:40.547Z,11.68
2023-03-17T11:47:02.193Z,11.73
2023-03-17T11:48:23.944Z,11.76
2023-03-17T11:49:45.682Z,11.80
2023-03-17T11:51:08.302Z,11.84
2023-03-17T11:52:30.355Z,11.90
2023-03-17T11:53:52.004Z,11.92
2023-03-17T11:55:16.333Z,11.91
2023-03-17T11:56:38.601Z,11.88
2023-03-17T11:58:00.472Z,11.86
2023-03-17T11:59:22.114Z,11.85
2023-03-17T12:00:45.453Z,11.83
2023-03-17T12:02:09.580Z,11.78
2023-03-17T12:03:51.963Z,11.73
2023-03-17T12:05:15.366Z,11.69
2023-03-17T12:06:37.130Z,11.66
2023-03-17T12:07:59.269Z,11.62
2023-03-17T12:09:21.205Z,11.57
2023-03-17T12:10:42.908Z,11.50
2023-03-17T12:12:04.301Z,11.41
2023-03-17T12:13:26.626Z,11.35
2023-03-17T12:14:48.731Z,11.29
2023-03-17T12:16:11.298Z,11.26
2023-03-17T12:17:33.458Z,11.24
2023-03-17T12:18:55.005Z,11.26
2023-03-17T12:20:18.361Z,11.29
2023-03-17T12:21:52.485Z,11.33
2023-03-17T12:23:29.831Z,11.38
2023-03-17T12:24:51.649Z,11.44
2023-03-17T12:26:13.472Z,11.49
2023-03-17T12:27:58.538Z,11.55
2023-03-17T12:29:32.243Z,11.61
2023-03-17T12:31:07.714Z,11.65
2023-03-17T12:32:39.572Z,11.69
2023-03-17T12:34:24.064Z,11.73
2023-03-17T12:35:58.343Z,11.79
2023-03-17T12:37:35.686Z,11.86
2023-03-17T12:39:24.230Z,11.94
2023-03-17T12:41:09.152Z,12.03
2023-03-17T12:42:54.298Z,12.15
2023-03-17T12:44:28.352Z,12.27
2023-03-17T12:46:01.866Z,12.35
2023-03-17T12:47:49.525Z,12.45
2023-03-17T12:49:23.165Z,12.54
2023-03-17T12:50:56.393Z,12.59
2023-03-17T12:54:48.154Z,12.70
2023-03-17T12:56:16.941Z,12.76
2023-03-17T12:58:02.111Z,12.80
2023-03-17T12:59:47.365Z,12.88
2023-03-17T13:01:36.984Z,12.96
2023-03-17T13:03:22.194Z,13.04
2023-03-17T13:04:57.942Z,13.13
2023-03-17T13:06:31.763Z,13.24
2023-03-17T13:08:16.990Z,13.34
2023-03-17T13:10:02.354Z,13.47
2023-03-17T13:11:55.940Z,13.56
2023-03-17T13:13:40.968Z,13.68
2023-03-17T13:15:14.075Z,13.78
2023-03-17T13:16:47.958Z,13.87
2023-03-17T13:18:09.452Z,13.90
2023-03-17T13:19:50.377Z,13.91
2023-03-17T13:21:12.283Z,13.93
2023-03-17T13:22:54.125Z,13.92
2023-03-17T13:24:27.475Z,13.87
2023-03-17T13:25:51.606Z,13.83
2023-03-17T13:27:27.482Z,13.76
2023-03-17T13:28:53.772Z,13.66
2023-03-17T13:30:35.641Z,13.56
2023-03-17T13:32:18.163Z,13.43
2023-03-17T13:33:53.659Z,13.37
2023-03-17T13:35:27.400Z,13.34
2023-03-17T13:36:51.682Z,13.35
2023-03-17T13:38:32.561Z,13.39
2023-03-17T13:39:56.663Z,13.47
2023-03-17T13:41:44.014Z,13.60
2023-03-17T13:43:28.937Z,13.74
2023-03-17T13:44:52.984Z,13.89
2023-03-17T13:46:15.430Z,14.01
2023-03-17T13:47:56.949Z,14.14
2023-03-17T13:49:32.431Z,14.30
2023-03-17T13:51:08.931Z,14.42
2023-03-17T13:52:42.549Z,14.52
2023-03-17T13:56:08.032Z,14.70
2023-03-17T13:57:30.061Z,14.74
2023-03-17T13:59:03.686Z,14.80
2023-03-17T14:00:44.675Z,14.87
2023-03-17T14:02:18.084Z,14.96
2023-03-17T14:03:54.487Z,15.04
2023-03-17T14:05:35.533Z,15.13
2023-03-17T14:07:20.737Z,15.21
2023-03-17T14:08:54.538Z,15.24
2023-03-17T14:10:39.710Z,15.26
2023-03-17T14:12:13.151Z,15.22
2023-03-17T14:13:46.802Z,15.18
2023-03-17T14:15:08.607Z,15.16
2023-03-17T14:16:31.453Z,15.18
2023-03-17T14:18:02.996Z,15.23
2023-03-17T14:19:48.384Z,15.25
2023-03-17T14:21:11.854Z,15.25
2023-03-17T14:22:45.586Z,15.23
2023-03-17T14:24:26.405Z,15.24
2023-03-17T14:25:50.387Z,15.28
2023-03-17T14:27:19.600Z,15.31
2023-03-17T14:28:41.413Z,15.35
2023-03-17T14:30:14.373Z,15.37
2023-03-17T14:31:36.209Z,15.36
2023-03-17T14:32:58.199Z,15.34
2023-03-17T14:34:34.631Z,15.31
2023-03-17T14:36:05.368Z,15.20
2023-03-17T14:37:39.334Z,15.04
2023-03-17T14:39:24.883Z,14.84
2023-03-17T14:41:07.758Z,14.63
2023-03-17T14:42:41.876Z,14.37
2023-03-17T14:44:13.680Z,14.18
2023-03-17T14:45:58.937Z,13.90
2023-03-17T14:47:20.966Z,13.67
2023-03-17T14:48:54.534Z,13.46
2023-03-17T14:50:18.549Z,13.28
2023-03-17T14:52:03.308Z,13.10
2023-03-17T14:53:57.029Z,12.90
2023-03-17T14:55:31.465Z,12.74
2023-03-17T14:57:09.070Z,12.60
2023-03-17T14:58:54.341Z,12.43
2023-03-17T15:00:40.151Z,12.29
2023-03-17T15:02:13.461Z,12.17
2023-03-17T15:03:49.706Z,12.05
2023-03-17T15:05:31.228Z,11.89
2023-03-17T15:07:16.173Z,11.76
2023-03-17T15:08:52.806Z,11.65
2023-03-17T15:10:38.702Z,11.52
2023-03-17T15:12:20.333Z,11.38
2023-03-17T15:13:42.204Z,11.24
2023-03-17T15:15:08.456Z,11.14
2023-03-17T15:17:02.141Z,11.03
2023-03-17T15:18:48.998Z,10.91
2023-03-17T15:20:34.179Z,10.81
2023-03-17T15:22:19.306Z,10.75
2023-03-17T15:24:05.609Z,10.68
2023-03-17T15:25:46.239Z,10.61
2023-03-17T15:27:19.795Z,10.55
2023-03-17T15:29:00.453Z,10.50
2023-03-17T15:30:46.221Z,10.42
2023-03-17T15:32:20.511Z,10.35
2023-03-17T15:33:42.454Z,10.28
2023-03-17T15:35:27.195Z,10.20
2023-03-17T15:36:51.053Z,10.12
2023-03-17T15:38:26.390Z,10.04
2023-03-17T15:39:59.686Z,9.94
2023-03-17T15:41:35.411Z,9.87
2023-03-17T15:43:08.841Z,9.80
2023-03-17T15:44:45.063Z,9.74
2023-03-17T15:46:16.731Z,9.66
2023-03-17T15:47:58.572Z,9.59
2023-03-17T15:49:43.916Z,9.50
2023-03-17T15:51:08.473Z,9.41
2023-03-17T15:52:53.597Z,9.33
2023-03-17T15:54:38.628Z,9.24
2023-03-17T15:56:20.207Z,9.16
2023-03-17T15:57:55.751Z,9.08
2023-03-17T15:59:36.610Z,8.99
2023-03-17T16:01:18.858Z,8.91
2023-03-17T16:02:54.491Z,8.84
2023-03-17T16:04:30.239Z,8.76
2023-03-17T16:06:20.717Z,8.70
2023-03-17T16:07:56.674Z,8.61
2023-03-17T16:09:46.757Z,8.53
2023-03-17T16:11:10.090Z,8.48
2023-03-17T16:13:00.732Z,8.42
2023-03-17T16:14:30.065Z,8.36
2023-03-17T16:16:14.059Z,8.31
2023-03-17T16:17:47.327Z,8.24
2023-03-17T16:19:22.824Z,8.20
2023-03-17T16:20:56.191Z,8.14
2023-03-17T16:22:29.640Z,8.10
2023-03-17T16:24:12.749Z,8.05
2023-03-17T16:26:11.705Z,7.99
2023-03-17T16:29:18.798Z,7.88
2023-03-17T16:30:54.435Z,7.82
2023-03-17T16:32:39.800Z,7.76
2023-03-17T16:34:24.650Z,7.69
2023-03-17T16:36:18.722Z,7.62
2023-03-17T16:38:04.069Z,7.55
2023-03-17T16:39:28.330Z,7.49
2023-03-17T16:40:49.994Z,7.44
2023-03-17T16:42:16.320Z,7.38
2023-03-17T16:43:52.070Z,7.33
2023-03-17T16:45:16.695Z,7.28
2023-03-17T16:46:47.871Z,7.22
2023-03-17T16:48:20.889Z,7.17
2023-03-17T16:50:06.011Z,7.11
2023-03-17T16:51:27.804Z,7.06
2023-03-17T16:52:49.490Z,7.01
2023-03-17T16:54:43.746Z,6.95
2023-03-17T16:56:08.385Z,6.89
2023-03-17T16:57:50.643Z,6.84
2023-03-17T16:59:31.532Z,6.78
2023-03-17T17:01:16.686Z,6.73
2023-03-17T17:03:01.877Z,6.67
2023-03-17T17:04:39.337Z,6.62
2023-03-17T17:06:14.417Z,6.56
2023-03-17T17:07:38.908Z,6.52
2023-03-17T17:09:14.485Z,6.48
2023-03-17T17:10:59.558Z,6.43
2023-03-17T17:14:07.489Z,6.35
2023-03-17T17:15:53.044Z,6.31
2023-03-17T17:17:38.172Z,6.27
2023-03-17T17:19:01.736Z,6.23
2023-03-17T17:20:23.708Z,6.20
2023-03-17T17:21:59.025Z,6.17
2023-03-17T17:23:32.449Z,6.13
2023-03-17T17:25:13.488Z,6.10
2023-03-17T17:26:55.349Z,6.08
2023-03-17T17:28:49.782Z,6.05
2023-03-17T17:30:18.561Z,6.02
2023-03-17T17:31:49.852Z,6.00
2023-03-17T17:33:35.263Z,5.96
2023-03-17T17:35:19.957Z,5.94
2023-03-17T17:36:46.481Z,5.91
2023-03-17T17:38:27.078Z,5.89
2023-03-17T17:40:10.244Z,5.87
2023-03-17T17:41:34.467Z,5.84
2023-03-17T17:45:58.475Z,5.78
2023-03-17T17:48:07.821Z,5.74
2023-03-17T17:49:43.170Z,5.72
2023-03-17T17:51:28.222Z,5.68
2023-03-17T17:53:08.575Z,5.65
2023-03-17T17:54:51.769Z,5.62
2023-03-17T18:03:27.211Z,5.51
2023-03-17T18:05:03.467Z,5.49
2023-03-17T18:06:57.621Z,5.48
2023-03-17T18:08:31.930Z,5.46
2023-03-17T18:10:26.363Z,5.44
2023-03-17T18:12:13.283Z,5.42
2023-03-17T18:13:51.960Z,5.41
2023-03-17T18:15:33.506Z,5.39
2023-03-17T18:17:08.452Z,5.38
2023-03-17T18:19:03.107Z,5.36
2023-03-17T18:20:48.797Z,5.35
2023-03-17T18:22:22.608Z,5.32
2023-03-17T18:23:55.034Z,5.31
2023-03-17T18:25:29.758Z,5.30
2023-03-17T18:27:11.779Z,5.29
2023-03-17T18:28:47.746Z,5.27
2023-03-17T18:30:23.632Z,5.26
2023-03-17T18:32:16.797Z,5.23
2023-03-17T18:34:10.756Z,5.21
2023-03-17T18:36:04.756Z,5.19
2023-03-17T18:37:45.934Z,5.17
2023-03-17T18:39:10.313Z,5.16
2023-03-17T18:40:43.854Z,5.15
2023-03-17T18:42:25.357Z,5.13
2023-03-17T18:44:10.391Z,5.11
2023-03-17T18:45:35.133Z,5.09
2023-03-17T18:47:20.323Z,5.07
2023-03-17T18:48:54.889Z,5.06
2023-03-17T18:50:24.002Z,5.03
2023-03-17T18:51:57.811Z,5.00
2023-03-17T18:53:33.134Z,4.97
2023-03-17T18:54:57.159Z,4.95
2023-03-17T18:56:30.913Z,4.93
2023-03-17T18:57:54.517Z,4.92
2023-03-17T18:59:16.784Z,4.90
2023-03-17T19:00:44.135Z,4.89
2023-03-17T19:02:15.376Z,4.88
2023-03-17T19:03:48.728Z,4.87
2023-03-17T19:05:29.775Z,4.85
2023-03-17T19:06:51.619Z,4.83
2023-03-17T19:08:16.011Z,4.81
2023-03-17T19:09:58.600Z,4.79
2023-03-17T19:11:22.850Z,4.77
2023-03-17T19:13:05.190Z,4.75
2023-03-17T19:14:27.706Z,4.73
2023-03-17T19:15:49.812Z,4.72
2023-03-17T19:17:26.068Z,4.71
2023-03-17T19:18:59.522Z,4.70
2023-03-17T19:20:20.986Z,4.68
2023-03-17T19:21:49.771Z,4.66
2023-03-17T19:23:12.494Z,4.65
2023-03-17T19:24:53.282Z,4.64
2023-03-17T19:26:15.748Z,4.61
2023-03-17T19:27:51.116Z,4.59
2023-03-17T19:29:20.264Z,4.58
2023-03-17T19:31:05.588Z,4.54
2023-03-17T19:32:39.117Z,4.52
2023-03-17T19:34:15.163Z,4.50
2023-03-17T19:35:56.040Z,4.48
2023-03-17T19:37:32.630Z,4.45
2023-03-17T19:39:06.658Z,4.43
2023-03-17T19:40:39.909Z,4.40
2023-03-17T19:42:13.401Z,4.37
2023-03-17T19:43:41.204Z,4.35
2023-03-17T19:45:15.132Z,4.33
2023-03-17T19:46:38.996Z,4.29
2023-03-17T19:48:12.521Z,4.27
2023-03-17T19:49:49.526Z,4.24
2023-03-17T19:51:11.543Z,4.22
2023-03-17T19:53:00.750Z,4.20
2023-03-17T19:54:55.785Z,4.17
2023-03-17T19:56:36.788Z,4.14
2023-03-17T19:58:22.650Z,4.12
2023-03-17T19:59:51.986Z,4.11
2023-03-17T20:01:23.673Z,4.09
2023-03-17T20:02:57.108Z,4.08
2023-03-17T20:04:31.206Z,4.07
2023-03-17T20:06:15.751Z,4.05
2023-03-17T20:07:40.160Z,4.04
2023-03-17T20:09:13.990Z,4.03
2023-03-17T20:10:49.286Z,4.02
2023-03-17T20:12:22.740Z,4.00
2023-03-17T20:13:58.702Z,3.98
2023-03-17T20:15:40.190Z,3.97
2023-03-17T20:17:25.875Z,3.95
2023-03-17T20:18:47.121Z,3.95
2023-03-17T20:20:16.019Z,3.94
2023-03-17T20:21:49.883Z,3.93
2023-03-17T20:23:44.755Z,3.92
2023-03-17T20:25:30.357Z,3.91
2023-03-17T20:27:15.159Z,3.90
2023-03-17T20:29:09.771Z,3.90
2023-03-17T20:30:43.742Z,3.89
2023-03-17T20:32:29.284Z,3.87
2023-03-17T20:34:15.070Z,3.86
2023-03-17T20:35:37.566Z,3.87
2023-03-17T20:37:02.759Z,3.86
2023-03-17T20:38:33.411Z,3.87
2023-03-17T20:39:57.374Z,3.87
2023-03-17T20:41:29.525Z,3.87
2023-03-17T20:42:53.234Z,3.86
2023-03-17T20:44:26.888Z,3.86
2023-03-17T20:45:53.144Z,3.85
2023-03-17T20:47:38.644Z,3.85
2023-03-17T20:49:25.022Z,3.84
2023-03-17T20:51:10.196Z,3.83
2023-03-17T20:52:55.434Z,3.81
2023-03-17T20:54:31.445Z,3.80
2023-03-17T20:56:21.753Z,3.79
2023-03-17T20:58:15.767Z,3.78
2023-03-17T20:59:51.311Z,3.76
2023-03-17T21:01:24.867Z,3.75
2023-03-17T21:03:09.896Z,3.74
2023-03-17T21:04:46.465Z,3.72
2023-03-17T21:06:20.710Z,3.71
2023-03-17T21:07:57.196Z,3.69
2023-03-17T21:09:18.885Z,3.69
2023-03-17T21:10:54.542Z,3.67
2023-03-17T21:12:18.927Z,3.65
2023-03-17T21:13:55.761Z,3.63
2023-03-17T21:15:30.104Z,3.62
2023-03-17T21:17:07.128Z,3.60
2023-03-17T21:18:29.597Z,3.59
2023-03-17T21:20:01.150Z,3.57
2023-03-17T21:21:32.537Z,3.56
2023-03-17T21:23:12.914Z,3.54
2023-03-17T21:24:35.125Z,3.52
2023-03-17T21:26:13.918Z,3.50
2023-03-17T21:27:49.597Z,3.49
2023-03-17T21:29:13.886Z,3.46
2023-03-17T21:30:37.035Z,3.44
2023-03-17T21:32:00.467Z,3.42
2023-03-17T21:33:24.735Z,3.41
2023-03-17T21:34:53.916Z,3.39
2023-03-17T21:36:16.232Z,3.37
2023-03-17T21:37:40.603Z,3.35